Time;durP1;ratioP1;P1;durP2;ratioP2;P2;SDS_P1;SDS_P2;PMS_P1;PMS_P2;Temp;Humidity;BMP_temperature;BMP_pressure;BME280_temperature;BME280_humidity;BME280_pressure;Samples;Min_cycle;Max_cycle;Signal;HPM_P1;HPM_P2
2021/07/10 00:00:29;;;;;;;1.00;0.63;;;16.20;99.90;;;;;;5036821;28;20242;-86
2021/07/10 00:02:55;;;;;;;0.60;0.60;;;16.20;99.90;;;;;;5036471;28;20177;-86
2021/07/10 00:05:21;;;;;;;0.83;0.70;;;16.10;99.90;;;;;;5052730;28;20736;-87
2021/07/10 00:07:48;;;;;;;0.70;0.70;;;16.00;99.90;;;;;;5036497;28;20180;-86
2021/07/10 00:10:16;;;;;;;0.70;0.70;;;15.90;99.90;;;;;;5036652;28;20188;-86
2021/07/10 00:12:42;;;;;;;1.13;1.13;;;15.80;99.90;;;;;;5036440;28;20338;-86
2021/07/10 00:15:14;;;;;;;0.43;0.43;;;15.80;99.90;;;;;;5052817;28;20207;-86
2021/07/10 00:17:40;;;;;;;1.37;1.20;;;15.70;99.90;;;;;;5038599;28;20748;-86
2021/07/10 00:20:08;;;;;;;0.70;0.70;;;15.70;99.90;;;;;;5052320;28;20183;-87
2021/07/10 00:22:33;;;;;;;0.97;0.83;;;15.70;99.90;;;;;;5073893;28;20189;-86
2021/07/10 00:25:00;;;;;;;1.00;0.83;;;15.60;99.90;;;;;;5052325;28;20272;-86
2021/07/10 00:27:26;;;;;;;0.93;0.93;;;15.60;99.90;;;;;;5051308;28;20223;-86
2021/07/10 00:29:52;;;;;;;0.87;0.60;;;15.60;99.90;;;;;;5039111;28;20179;-86
2021/07/10 00:32:18;;;;;;;0.80;0.80;;;15.60;99.90;;;;;;5037012;28;20563;-86
2021/07/10 00:34:43;;;;;;;2.10;1.30;;;15.50;99.90;;;;;;5054284;28;20291;-86
2021/07/10 00:37:51;;;;;;;0.60;0.60;;;15.50;99.90;;;;;;5053950;28;20303;-86
2021/07/10 00:40:17;;;;;;;0.40;0.40;;;15.50;99.90;;;;;;5028296;28;20194;-86
2021/07/10 00:42:45;;;;;;;0.30;0.30;;;15.60;99.90;;;;;;5053726;28;20173;-86
2021/07/10 00:45:11;;;;;;;0.43;0.43;;;15.70;99.90;;;;;;5052495;28;20210;-86
2021/07/10 00:47:38;;;;;;;0.40;0.40;;;15.90;99.90;;;;;;5053282;28;20237;-86
2021/07/10 00:50:11;;;;;;;0.50;0.40;;;16.10;99.90;;;;;;5035302;28;20278;-88
2021/07/10 00:52:37;;;;;;;0.43;0.43;;;16.00;99.90;;;;;;5035242;28;20196;-86
2021/07/10 00:55:03;;;;;;;0.80;0.63;;;15.90;99.90;;;;;;5053464;28;20205;-86
2021/07/10 00:57:29;;;;;;;1.17;0.73;;;15.90;99.90;;;;;;5035297;28;20572;-86
2021/07/10 00:59:55;;;;;;;1.97;0.80;;;15.80;99.90;;;;;;5045610;28;20193;-85
2021/07/10 01:02:21;;;;;;;7.00;1.20;;;15.70;99.90;;;;;;5039633;28;20211;-86
2021/07/10 01:04:47;;;;;;;0.87;0.87;;;15.50;99.90;;;;;;5053131;28;20708;-86
2021/07/10 01:07:12;;;;;;;0.70;0.60;;;15.50;99.90;;;;;;5040151;28;20189;-87
2021/07/10 01:09:38;;;;;;;0.57;0.57;;;15.40;99.90;;;;;;5040159;28;20236;-86
2021/07/10 01:12:05;;;;;;;1.27;0.53;;;15.40;99.90;;;;;;5053164;28;20236;-86
2021/07/10 01:14:31;;;;;;;0.90;0.90;;;15.40;99.90;;;;;;5034857;28;20209;-86
2021/07/10 01:16:56;;;;;;;0.53;0.40;;;15.50;99.90;;;;;;5051555;28;20229;-86
2021/07/10 01:19:27;;;;;;;0.67;0.67;;;15.50;99.90;;;;;;5035277;28;20272;-86
2021/07/10 01:21:57;;;;;;;0.33;0.33;;;15.60;99.90;;;;;;5035199;28;20203;-86
2021/07/10 01:24:24;;;;;;;0.83;0.83;;;15.60;99.90;;;;;;5035581;28;20211;-86
2021/07/10 01:26:49;;;;;;;0.60;0.50;;;15.70;99.90;;;;;;5050958;28;20197;-86
2021/07/10 01:29:15;;;;;;;0.70;0.70;;;15.50;99.90;;;;;;5047941;28;20558;-86
2021/07/10 01:31:42;;;;;;;0.80;0.80;;;15.50;99.90;;;;;;5032398;28;20263;-86
2021/07/10 01:34:08;;;;;;;0.30;0.30;;;15.50;99.90;;;;;;5051435;28;20229;-85
2021/07/10 01:36:34;;;;;;;0.40;0.40;;;15.60;99.90;;;;;;5049143;28;20627;-91
2021/07/10 01:39:01;;;;;;;0.57;0.37;;;15.60;99.90;;;;;;5051412;28;20231;-86
2021/07/10 01:41:26;;;;;;;0.30;0.30;;;15.60;99.90;;;;;;5052023;28;20179;-85
2021/07/10 01:43:52;;;;;;;0.90;0.67;;;15.50;99.90;;;;;;5035095;28;20214;-86
2021/07/10 01:46:18;;;;;;;0.53;0.53;;;15.40;99.90;;;;;;5052647;28;20192;-86
2021/07/10 01:48:45;;;;;;;1.20;1.10;;;15.40;99.90;;;;;;5052192;28;20311;-86
2021/07/10 01:51:11;;;;;;;2.00;1.00;;;15.30;99.90;;;;;;5052551;28;20256;-86
2021/07/10 01:53:36;;;;;;;0.40;0.40;;;15.30;99.90;;;;;;5051244;28;20655;-86
2021/07/10 01:56:02;;;;;;;0.43;0.43;;;15.30;99.90;;;;;;5052063;28;20207;-86
2021/07/10 01:58:28;;;;;;;0.67;0.60;;;15.30;99.90;;;;;;5052307;28;20188;-87
2021/07/10 02:00:53;;;;;;;0.47;0.47;;;15.30;99.90;;;;;;5034383;28;20182;-86
2021/07/10 02:03:19;;;;;;;0.47;0.47;;;15.30;99.90;;;;;;5033825;28;20256;-86
2021/07/10 02:05:45;;;;;;;0.80;0.80;;;15.30;99.90;;;;;;5034545;28;20214;-86
2021/07/10 02:08:10;;;;;;;1.27;0.97;;;15.20;99.90;;;;;;5034415;28;20195;-86
2021/07/10 02:10:36;;;;;;;0.37;0.37;;;15.20;99.90;;;;;;5052359;28;20206;-87
2021/07/10 02:13:12;;;;;;;0.37;0.30;;;15.30;99.90;;;;;;5034653;28;20192;-87
2021/07/10 02:15:39;;;;;;;0.63;0.53;;;15.20;99.90;;;;;;5056132;28;20218;-86
2021/07/10 02:18:05;;;;;;;0.70;0.70;;;15.20;99.90;;;;;;5035007;28;20210;-87
2021/07/10 02:20:31;;;;;;;0.53;0.53;;;15.10;99.90;;;;;;5052295;28;20179;-86
2021/07/10 02:22:57;;;;;;;1.00;1.00;;;15.10;99.90;;;;;;5034450;28;20184;-86
2021/07/10 02:25:25;;;;;;;0.50;0.50;;;15.10;99.90;;;;;;5052146;28;20228;-86
2021/07/10 02:27:51;;;;;;;0.90;0.73;;;15.00;99.90;;;;;;5036216;28;20235;-87
2021/07/10 02:30:24;;;;;;;0.40;0.40;;;14.90;99.90;;;;;;5042066;28;20605;-86
2021/07/10 02:32:49;;;;;;;0.60;0.60;;;14.90;99.90;;;;;;5052038;28;20657;-86
2021/07/10 02:35:16;;;;;;;3.70;0.50;;;14.90;99.90;;;;;;5034108;28;20309;-86
2021/07/10 02:37:43;;;;;;;0.37;0.37;;;14.90;99.90;;;;;;5038733;28;20187;-86
2021/07/10 02:40:11;;;;;;;1.30;0.83;;;15.00;99.90;;;;;;5034587;28;20218;-87
2021/07/10 02:42:37;;;;;;;0.40;0.40;;;14.90;99.90;;;;;;5034442;28;20178;-87
2021/07/10 02:45:05;;;;;;;0.70;0.67;;;14.90;99.90;;;;;;5034330;28;20356;-86
2021/07/10 02:47:31;;;;;;;0.93;0.90;;;14.90;99.90;;;;;;5033274;28;20178;-84
2021/07/10 02:49:56;;;;;;;0.83;0.83;;;14.90;99.90;;;;;;5052091;28;20182;-85
2021/07/10 02:52:22;;;;;;;0.63;0.50;;;14.90;99.90;;;;;;5034197;28;20188;-86
2021/07/10 02:54:47;;;;;;;0.77;0.77;;;14.90;99.90;;;;;;5051988;28;20226;-86
2021/07/10 02:57:13;;;;;;;0.70;0.70;;;15.00;99.90;;;;;;5033476;28;20613;-87
2021/07/10 02:59:40;;;;;;;0.60;0.50;;;15.20;99.90;;;;;;5034123;28;20186;-86
2021/07/10 03:02:08;;;;;;;0.53;0.53;;;15.30;99.90;;;;;;5034275;28;20192;-86
2021/07/10 03:04:34;;;;;;;0.70;0.50;;;15.40;99.90;;;;;;5033901;28;20217;-86
2021/07/10 03:07:00;;;;;;;0.47;0.47;;;15.50;99.90;;;;;;5034116;28;20201;-86
2021/07/10 03:09:25;;;;;;;0.47;0.47;;;15.60;99.90;;;;;;5034055;28;20187;-87
2021/07/10 03:11:51;;;;;;;0.70;0.63;;;15.60;99.90;;;;;;5031478;28;20191;-85
2021/07/10 03:14:17;;;;;;;0.87;0.60;;;15.60;99.90;;;;;;5039428;28;20244;-86
2021/07/10 03:16:43;;;;;;;1.27;0.70;;;15.50;99.90;;;;;;5040521;28;20313;-86
2021/07/10 03:19:08;;;;;;;0.50;0.50;;;15.60;99.90;;;;;;5041549;28;20359;-86
2021/07/10 03:21:34;;;;;;;0.60;0.60;;;15.70;99.90;;;;;;5056805;28;20195;-86
2021/07/10 03:24:00;;;;;;;0.83;0.83;;;15.90;99.90;;;;;;5055341;28;20212;-86
2021/07/10 03:26:25;;;;;;;0.50;0.50;;;15.80;99.90;;;;;;5056257;28;20191;-86
2021/07/10 03:28:51;;;;;;;0.60;0.60;;;15.50;99.90;;;;;;5037841;28;20188;-86
2021/07/10 03:31:17;;;;;;;0.50;0.50;;;15.20;99.90;;;;;;5055777;28;20188;-86
2021/07/10 03:33:44;;;;;;;1.30;1.00;;;15.00;99.90;;;;;;5055521;28;20207;-86
2021/07/10 03:36:11;;;;;;;0.60;0.60;;;15.00;99.90;;;;;;5051131;28;20245;-86
2021/07/10 03:38:39;;;;;;;0.87;0.80;;;14.90;99.90;;;;;;5036945;28;20171;-86
2021/07/10 03:41:05;;;;;;;0.77;0.77;;;14.90;99.90;;;;;;5039934;28;20186;-86
2021/07/10 03:43:31;;;;;;;0.40;0.40;;;15.10;99.90;;;;;;5041791;28;20182;-86
2021/07/10 03:45:58;;;;;;;0.50;0.50;;;15.10;99.90;;;;;;5054919;28;20180;-86
2021/07/10 03:48:24;;;;;;;0.73;0.73;;;15.20;99.90;;;;;;5036981;28;20293;-85
2021/07/10 03:50:50;;;;;;;0.60;0.60;;;15.20;99.90;;;;;;5040399;28;20691;-85
2021/07/10 03:53:16;;;;;;;0.63;0.63;;;15.20;99.90;;;;;;5037742;28;20216;-84
2021/07/10 03:55:51;;;;;;;0.63;0.50;;;15.20;99.90;;;;;;5054542;28;20254;-85
2021/07/10 03:58:16;;;;;;;0.97;0.60;;;15.30;99.90;;;;;;5034765;28;20559;-85
2021/07/10 04:00:42;;;;;;;0.40;0.40;;;15.60;99.90;;;;;;5061478;28;20257;-85
2021/07/10 04:03:09;;;;;;;0.90;0.90;;;15.90;99.90;;;;;;5043260;28;20194;-85
2021/07/10 04:05:35;;;;;;;0.70;0.70;;;16.10;99.90;;;;;;5057803;28;20273;-85
2021/07/10 04:08:01;;;;;;;3.30;1.20;;;16.30;99.90;;;;;;5066635;28;20917;-85
2021/07/10 04:10:28;;;;;;;0.93;0.80;;;16.10;99.90;;;;;;5040194;28;20190;-85
2021/07/10 04:12:53;;;;;;;1.77;0.80;;;16.10;99.90;;;;;;5041209;28;20192;-85
2021/07/10 04:15:19;;;;;;;1.07;0.77;;;16.10;99.90;;;;;;5035605;28;20219;-84
2021/07/10 04:17:46;;;;;;;0.97;0.67;;;16.40;99.90;;;;;;5067529;28;20232;-85
2021/07/10 04:20:12;;;;;;;0.60;0.60;;;16.70;99.90;;;;;;5059629;28;20179;-84
2021/07/10 04:22:39;;;;;;;0.53;0.53;;;16.90;99.90;;;;;;5040654;28;20222;-85
2021/07/10 04:25:10;;;;;;;0.97;0.70;;;16.90;99.90;;;;;;5040542;28;20200;-85
2021/07/10 04:27:38;;;;;;;1.80;0.80;;;16.80;99.90;;;;;;5061054;28;20220;-85
2021/07/10 04:30:06;;;;;;;1.07;1.07;;;16.70;99.90;;;;;;5040198;28;20227;-85
2021/07/10 04:32:32;;;;;;;3.87;0.97;;;16.50;99.90;;;;;;5040617;28;20244;-85
2021/07/10 04:34:59;;;;;;;1.00;1.00;;;16.30;99.90;;;;;;5071439;28;20207;-84
2021/07/10 04:37:24;;;;;;;1.47;1.30;;;16.10;99.90;;;;;;5046439;28;20220;-84
2021/07/10 04:39:50;;;;;;;1.20;1.10;;;16.10;99.90;;;;;;5056605;28;20184;-85
2021/07/10 04:42:16;;;;;;;0.53;0.53;;;15.90;99.90;;;;;;5058395;28;20188;-86
2021/07/10 04:44:43;;;;;;;0.80;0.80;;;16.10;99.90;;;;;;5067696;28;20204;-84
2021/07/10 04:47:09;;;;;;;0.70;0.70;;;16.30;99.90;;;;;;5041517;28;20207;-84
2021/07/10 04:49:35;;;;;;;2.57;0.80;;;16.40;99.90;;;;;;5046503;28;20911;-85
2021/07/10 04:52:01;;;;;;;0.43;0.43;;;16.50;99.90;;;;;;5041176;28;20274;-85
2021/07/10 04:54:27;;;;;;;0.57;0.57;;;16.60;99.90;;;;;;5068026;28;20211;-84
2021/07/10 04:56:53;;;;;;;1.13;0.83;;;16.90;99.90;;;;;;5039568;28;20212;-85
2021/07/10 04:59:19;;;;;;;0.60;0.60;;;16.90;99.90;;;;;;5055194;28;20192;-85
2021/07/10 05:01:44;;;;;;;1.00;1.00;;;16.90;99.90;;;;;;5040483;28;20188;-86
2021/07/10 05:04:10;;;;;;;0.60;0.60;;;17.10;99.90;;;;;;5054910;28;20576;-85
2021/07/10 05:06:35;;;;;;;0.70;0.70;;;17.30;99.90;;;;;;5056840;28;20641;-87
2021/07/10 05:09:01;;;;;;;0.53;0.53;;;17.70;99.90;;;;;;5040055;28;20203;-87
2021/07/10 05:11:27;;;;;;;1.23;0.93;;;18.00;99.90;;;;;;5053465;28;20197;-85
2021/07/10 05:13:53;;;;;;;1.23;0.87;;;18.30;99.90;;;;;;5053414;28;20209;-86
2021/07/10 05:16:18;;;;;;;1.90;1.73;;;18.40;99.90;;;;;;5054999;28;20217;-84
2021/07/10 05:18:44;;;;;;;2.57;0.80;;;18.40;99.90;;;;;;5053719;28;20225;-85
2021/07/10 05:21:09;;;;;;;1.73;1.60;;;18.50;99.90;;;;;;5051776;28;20193;-85
2021/07/10 05:23:35;;;;;;;3.23;1.70;;;18.20;99.90;;;;;;5057256;28;20268;-85
2021/07/10 05:26:01;;;;;;;1.13;1.13;;;17.70;99.90;;;;;;5058124;28;20225;-85
2021/07/10 05:28:26;;;;;;;1.80;1.07;;;18.10;99.90;;;;;;5039556;28;20214;-85
2021/07/10 05:30:52;;;;;;;1.27;1.17;;;18.40;99.90;;;;;;5037153;28;20184;-86
2021/07/10 05:33:19;;;;;;;1.27;1.27;;;18.60;99.90;;;;;;5034631;28;20191;-86
2021/07/10 05:35:45;;;;;;;1.10;1.03;;;18.30;99.90;;;;;;5052059;28;20233;-86
2021/07/10 05:38:12;;;;;;;1.43;1.00;;;18.30;99.90;;;;;;5034149;28;20185;-85
2021/07/10 05:40:38;;;;;;;0.93;0.83;;;18.50;99.90;;;;;;5034696;28;20178;-86
2021/07/10 05:43:04;;;;;;;1.90;1.70;;;18.70;99.90;;;;;;5034884;28;20276;-85
2021/07/10 05:45:29;;;;;;;2.60;1.37;;;18.10;99.90;;;;;;5034429;28;20263;-87
2021/07/10 05:47:55;;;;;;;3.13;2.57;;;17.80;99.90;;;;;;5052662;28;20185;-86
2021/07/10 05:50:21;;;;;;;1.80;1.10;;;17.40;99.90;;;;;;5029190;28;20271;-85
2021/07/10 05:52:46;;;;;;;5.67;2.63;;;17.70;99.90;;;;;;5033479;28;20180;-86
2021/07/10 05:55:12;;;;;;;3.07;1.50;;;17.20;99.90;;;;;;5034246;28;20233;-86
2021/07/10 05:57:38;;;;;;;0.97;0.90;;;17.40;99.90;;;;;;5052309;28;20231;-86
2021/07/10 06:00:09;;;;;;;0.47;0.37;;;17.80;99.90;;;;;;5052390;28;20553;-86
2021/07/10 06:02:35;;;;;;;3.10;0.67;;;18.00;99.90;;;;;;5034631;28;20203;-86
2021/07/10 06:05:02;;;;;;;0.50;0.50;;;18.30;99.90;;;;;;5036299;28;20615;-86
2021/07/10 06:07:27;;;;;;;1.23;1.23;;;18.50;99.90;;;;;;5052196;28;20685;-86
2021/07/10 06:09:53;;;;;;;1.00;0.90;;;18.70;99.90;;;;;;5053831;28;20177;-86
2021/07/10 06:12:19;;;;;;;1.37;1.03;;;18.90;99.90;;;;;;5033929;28;20234;-86
2021/07/10 06:14:44;;;;;;;0.63;0.63;;;19.00;99.90;;;;;;5051981;28;20212;-88
2021/07/10 06:17:10;;;;;;;2.30;1.40;;;18.90;99.90;;;;;;5050311;28;20204;-88
2021/07/10 06:19:35;;;;;;;2.07;0.80;;;19.00;99.90;;;;;;5051656;28;20238;-86
2021/07/10 06:22:01;;;;;;;1.03;0.97;;;19.00;99.90;;;;;;5050501;28;20193;-85
2021/07/10 06:24:27;;;;;;;1.50;1.40;;;19.00;99.90;;;;;;5053404;28;20204;-85
2021/07/10 06:26:53;;;;;;;1.20;1.10;;;19.10;99.90;;;;;;5035170;28;20177;-85
2021/07/10 06:29:19;;;;;;;1.07;0.93;;;19.10;99.90;;;;;;5034869;28;20199;-85
2021/07/10 06:31:45;;;;;;;2.57;1.27;;;19.30;99.90;;;;;;5055196;28;20190;-85
2021/07/10 06:34:10;;;;;;;0.97;0.90;;;18.90;99.90;;;;;;5051081;28;20235;-83
2021/07/10 06:36:37;;;;;;;0.73;0.63;;;19.20;99.90;;;;;;5035785;28;20738;-83
2021/07/10 06:39:04;;;;;;;1.23;0.80;;;19.30;99.90;;;;;;5037649;28;20683;-82
2021/07/10 06:41:30;;;;;;;1.00;0.93;;;19.40;99.90;;;;;;5032869;28;20186;-83
2021/07/10 06:43:55;;;;;;;1.30;1.20;;;19.60;99.90;;;;;;5052815;28;20285;-83
2021/07/10 06:46:21;;;;;;;0.90;0.90;;;19.60;99.90;;;;;;5049936;28;20194;-83
2021/07/10 06:48:46;;;;;;;3.17;1.20;;;19.70;99.90;;;;;;5066751;28;20721;-85
2021/07/10 06:51:12;;;;;;;1.40;1.30;;;19.70;99.90;;;;;;5068418;28;20284;-85
2021/07/10 06:53:39;;;;;;;4.27;2.30;;;19.80;99.90;;;;;;5036854;28;20193;-85
2021/07/10 06:56:05;;;;;;;1.10;0.73;;;19.80;99.90;;;;;;5054607;28;20235;-85
2021/07/10 06:58:30;;;;;;;1.43;1.33;;;19.60;99.90;;;;;;5039322;28;20191;-85
2021/07/10 07:00:56;;;;;;;2.60;1.60;;;19.10;99.90;;;;;;5040218;28;20673;-85
2021/07/10 07:03:22;;;;;;;1.53;1.40;;;19.30;99.90;;;;;;5042954;28;20177;-85
2021/07/10 07:05:47;;;;;;;0.90;0.90;;;19.70;99.90;;;;;;5040861;28;20214;-86
2021/07/10 07:08:14;;;;;;;1.70;1.60;;;19.90;99.90;;;;;;5053612;28;20196;-85
2021/07/10 07:10:39;;;;;;;2.47;2.27;;;19.60;99.90;;;;;;5056057;28;20191;-87
2021/07/10 07:13:05;;;;;;;1.60;1.33;;;19.70;99.90;;;;;;5073256;28;20575;-85
2021/07/10 07:15:31;;;;;;;1.60;1.50;;;20.00;99.90;;;;;;5055840;28;20271;-85
2021/07/10 07:17:56;;;;;;;1.57;1.47;;;19.80;99.90;;;;;;5037632;28;20243;-85
2021/07/10 07:20:22;;;;;;;3.80;1.23;;;20.10;99.90;;;;;;5058262;28;20174;-85
2021/07/10 07:22:49;;;;;;;0.90;0.73;;;20.20;99.90;;;;;;5056174;28;20209;-85
2021/07/10 07:25:20;;;;;;;1.20;0.93;;;20.30;99.90;;;;;;5038470;28;20206;-85
2021/07/10 07:27:48;;;;;;;1.87;1.03;;;20.40;99.90;;;;;;5036818;28;20245;-85
2021/07/10 07:30:14;;;;;;;2.17;1.20;;;20.40;99.90;;;;;;5036411;28;20190;-85
2021/07/10 07:32:40;;;;;;;1.93;1.37;;;20.50;99.90;;;;;;5044905;28;20185;-85
2021/07/10 07:35:07;;;;;;;2.60;1.63;;;20.30;99.90;;;;;;5037344;28;20212;-85
2021/07/10 07:37:33;;;;;;;0.80;0.70;;;19.90;99.90;;;;;;5055797;28;20189;-90
2021/07/10 07:40:07;;;;;;;1.47;1.37;;;20.20;99.90;;;;;;5055746;28;20185;-85
2021/07/10 07:42:33;;;;;;;1.90;1.60;;;20.40;99.90;;;;;;5040338;28;20189;-85
2021/07/10 07:44:59;;;;;;;2.83;2.23;;;20.90;99.90;;;;;;5062752;28;20200;-85
2021/07/10 07:47:25;;;;;;;4.73;2.00;;;21.20;99.90;;;;;;5059869;28;20256;-85
2021/07/10 07:49:51;;;;;;;3.70;1.73;;;21.30;99.90;;;;;;5036376;28;20185;-85
2021/07/10 07:52:17;;;;;;;3.30;2.67;;;21.50;99.90;;;;;;5059301;28;20180;-85
2021/07/10 07:54:42;;;;;;;2.23;1.80;;;21.30;99.90;;;;;;5048965;28;20211;-86
2021/07/10 07:57:08;;;;;;;3.30;2.30;;;21.20;99.90;;;;;;5054328;28;20673;-85
2021/07/10 07:59:35;;;;;;;2.13;1.93;;;21.50;99.90;;;;;;5054115;28;20173;-85
2021/07/10 08:02:02;;;;;;;1.60;1.37;;;21.40;99.90;;;;;;5035601;28;20185;-85
2021/07/10 08:04:28;;;;;;;3.13;1.90;;;21.80;99.90;;;;;;5038914;28;20198;-85
2021/07/10 08:06:54;;;;;;;2.93;2.73;;;22.00;99.90;;;;;;5034699;28;20194;-85
2021/07/10 08:09:19;;;;;;;1.40;1.30;;;22.10;99.90;;;;;;5036205;28;20279;-85
2021/07/10 08:11:45;;;;;;;3.77;1.90;;;22.40;99.90;;;;;;5033853;28;20196;-87
2021/07/10 08:14:12;;;;;;;3.70;2.50;;;22.50;99.90;;;;;;5044593;28;20213;-85
2021/07/10 08:16:38;;;;;;;3.93;2.60;;;22.60;99.90;;;;;;5024216;28;20578;-85
2021/07/10 08:19:04;;;;;;;4.73;2.90;;;22.10;99.90;;;;;;5046303;28;20258;-85
2021/07/10 08:21:32;;;;;;;2.67;2.47;;;21.20;99.90;;;;;;5056212;28;20245;-86
2021/07/10 08:23:58;;;;;;;5.17;2.53;;;20.70;99.90;;;;;;5036026;28;20245;-88
2021/07/10 08:26:25;;;;;;;3.07;1.83;;;20.50;99.90;;;;;;5035309;28;20563;-87
2021/07/10 08:28:50;;;;;;;2.27;1.73;;;21.20;99.90;;;;;;5068877;28;20190;-86
2021/07/10 08:31:16;;;;;;;3.50;1.90;;;21.70;99.90;;;;;;5054009;28;20193;-86
2021/07/10 08:33:42;;;;;;;4.27;2.53;;;22.30;99.90;;;;;;5053928;28;20182;-86
2021/07/10 08:36:08;;;;;;;4.63;2.07;;;22.60;99.90;;;;;;5036417;28;20220;-86
2021/07/10 08:38:36;;;;;;;4.93;1.50;;;22.90;99.90;;;;;;5035714;28;20605;-87
2021/07/10 08:41:03;;;;;;;3.03;2.40;;;23.00;99.90;;;;;;5053785;28;20261;-86
2021/07/10 08:43:48;;;;;;;2.03;1.20;;;23.30;99.90;;;;;;5035574;28;20260;-86
2021/07/10 08:46:16;;;;;;;4.33;2.80;;;23.50;99.90;;;;;;5036047;28;20196;-86
2021/07/10 08:48:42;;;;;;;4.27;2.57;;;23.80;99.90;;;;;;5038296;28;20244;-86
2021/07/10 08:51:10;;;;;;;3.87;2.57;;;23.90;99.90;;;;;;5035742;28;20181;-87
2021/07/10 08:53:36;;;;;;;4.07;2.37;;;23.80;99.90;;;;;;5035074;28;20188;-86
2021/07/10 08:56:01;;;;;;;3.07;1.77;;;23.40;99.90;;;;;;5035672;28;20292;-86
2021/07/10 08:58:27;;;;;;;2.60;2.00;;;23.70;99.90;;;;;;5035164;28;20189;-86
2021/07/10 09:00:53;;;;;;;1.93;1.83;;;23.30;99.90;;;;;;5035681;28;20182;-86
2021/07/10 09:03:19;;;;;;;2.20;2.03;;;23.70;99.90;;;;;;5063701;28;20738;-86
2021/07/10 09:05:45;;;;;;;3.50;2.73;;;23.90;99.90;;;;;;5035626;28;20227;-86
2021/07/10 09:08:23;;;;;;;4.37;2.57;;;23.50;99.90;;;;;;5035196;28;20249;-86
2021/07/10 09:11:14;;;;;;;1.80;1.70;;;23.50;99.90;;;;;;5035744;28;20208;-88
2021/07/10 09:13:51;;;;;;;1.90;1.67;;;23.60;99.90;;;;;;5023779;28;20198;-86
2021/07/10 09:16:35;;;;;;;3.73;1.60;;;23.70;99.90;;;;;;5055014;28;20216;-87
2021/07/10 09:19:08;;;;;;;1.00;0.90;;;24.00;99.90;;;;;;5056989;28;20201;-88
2021/07/10 09:21:50;;;;;;;1.27;1.17;;;24.60;99.90;;;;;;5039790;28;20186;-86
2021/07/10 09:24:32;;;;;;;3.67;2.50;;;24.20;99.90;;;;;;5051423;28;20215;-87
2021/07/10 09:27:03;;;;;;;3.27;1.27;;;24.60;99.90;;;;;;5035216;28;20399;-87
2021/07/10 09:29:35;;;;;;;0.90;0.87;;;25.10;99.90;;;;;;5034834;28;20258;-86
2021/07/10 09:32:05;;;;;;;1.60;1.47;;;25.60;99.90;;;;;;5048108;28;20189;-85
2021/07/10 09:34:55;;;;;;;2.33;2.13;;;25.90;99.90;;;;;;5052711;28;20205;-85
2021/07/10 09:37:24;;;;;;;3.43;2.00;;;26.20;99.90;;;;;;5036015;28;20213;-85
2021/07/10 09:40:01;;;;;;;2.60;2.40;;;26.60;99.90;;;;;;5067967;28;20184;-85
2021/07/10 09:42:35;;;;;;;1.00;1.00;;;26.20;99.90;;;;;;5036380;28;20177;-84
2021/07/10 09:45:03;;;;;;;4.03;2.97;;;26.50;99.90;;;;;;5037250;28;20197;-85
2021/07/10 09:47:34;;;;;;;3.63;2.30;;;24.90;99.90;;;;;;5035275;28;20181;-85
2021/07/10 09:50:02;;;;;;;3.87;2.37;;;24.60;99.90;;;;;;5035946;28;20247;-85
2021/07/10 09:52:30;;;;;;;2.70;1.27;;;24.30;99.90;;;;;;5048226;28;20189;-86
2021/07/10 09:55:10;;;;;;;1.80;1.13;;;25.10;99.90;;;;;;5051626;28;20320;-85
2021/07/10 09:57:38;;;;;;;1.30;1.10;;;25.70;99.90;;;;;;5046413;28;20201;-86
2021/07/10 10:00:08;;;;;;;1.30;1.20;;;26.30;99.90;;;;;;5036376;28;20240;-85
2021/07/10 10:02:48;;;;;;;1.80;1.70;;;26.50;99.90;;;;;;5035447;28;20181;-85
2021/07/10 10:05:16;;;;;;;0.90;0.90;;;26.70;99.90;;;;;;5050890;28;20279;-86
2021/07/10 10:07:53;;;;;;;1.30;1.20;;;26.40;99.90;;;;;;5049686;28;20209;-85
2021/07/10 10:10:28;;;;;;;2.43;1.83;;;26.20;99.90;;;;;;5035591;28;20181;-85
2021/07/10 10:13:14;;;;;;;2.00;1.43;;;26.10;99.90;;;;;;5049652;28;20204;-85
2021/07/10 10:15:49;;;;;;;2.03;1.77;;;26.30;99.90;;;;;;5051853;28;20213;-85
2021/07/10 10:18:16;;;;;;;1.10;1.10;;;25.70;99.90;;;;;;5029064;28;20189;-85
2021/07/10 10:20:44;;;;;;;1.27;1.20;;;25.80;99.90;;;;;;5056747;28;20261;-85
2021/07/10 10:23:12;;;;;;;0.70;0.70;;;26.20;99.90;;;;;;5037386;28;20243;-85
2021/07/10 10:25:39;;;;;;;1.40;1.23;;;26.40;99.90;;;;;;5037536;28;20244;-87
2021/07/10 10:28:06;;;;;;;1.93;1.60;;;26.00;99.90;;;;;;5054692;28;20636;-85
2021/07/10 10:30:33;;;;;;;2.20;1.40;;;25.00;99.90;;;;;;5046805;28;20182;-85
2021/07/10 10:32:59;;;;;;;0.93;0.93;;;24.90;99.90;;;;;;5047008;28;20215;-86
2021/07/10 10:35:24;;;;;;;2.00;1.43;;;25.50;99.90;;;;;;5056174;28;20201;-85
2021/07/10 10:37:50;;;;;;;1.10;0.77;;;25.40;99.90;;;;;;5060270;28;20921;-85
2021/07/10 10:40:22;;;;;;;1.10;1.00;;;25.70;99.90;;;;;;5037255;28;20186;-83
2021/07/10 10:42:56;;;;;;;1.33;1.03;;;25.70;99.90;;;;;;5036357;28;20251;-83
2021/07/10 10:45:31;;;;;;;0.60;0.60;;;26.10;99.90;;;;;;5060980;28;20208;-84
2021/07/10 10:47:56;;;;;;;0.37;0.30;;;26.80;99.90;;;;;;5069633;28;20177;-83
2021/07/10 10:50:34;;;;;;;1.20;1.03;;;27.30;99.90;;;;;;5045733;28;20193;-82
2021/07/10 10:53:01;;;;;;;0.70;0.70;;;27.60;99.90;;;;;;5047099;28;20597;-83
2021/07/10 10:55:40;;;;;;;0.83;0.60;;;27.80;99.90;;;;;;5051669;28;20275;-84
2021/07/10 10:58:26;;;;;;;0.90;0.57;;;27.90;99.90;;;;;;5053631;28;20192;-84
2021/07/10 11:01:06;;;;;;;1.27;1.27;;;28.30;99.90;;;;;;5052379;28;20668;-84
2021/07/10 11:03:40;;;;;;;0.83;0.80;;;28.00;99.90;;;;;;5051652;28;20178;-84
2021/07/10 11:06:06;;;;;;;1.17;0.97;;;27.30;99.90;;;;;;5039097;28;20187;-84
2021/07/10 11:08:38;;;;;;;1.50;0.70;;;27.00;99.90;;;;;;5056270;28;20181;-84
2021/07/10 11:11:04;;;;;;;1.27;0.80;;;27.10;99.90;;;;;;5039882;28;20563;-84
2021/07/10 11:13:38;;;;;;;1.03;0.93;;;26.20;99.90;;;;;;5050565;28;20186;-83
2021/07/10 11:16:06;;;;;;;0.70;0.70;;;26.40;99.90;;;;;;5040062;28;20703;-84
2021/07/10 11:18:50;;;;;;;1.50;1.33;;;27.00;99.90;;;;;;5037403;28;20276;-84
2021/07/10 11:21:31;;;;;;;1.23;1.13;;;26.90;99.90;;;;;;5069233;28;20192;-84
2021/07/10 11:26:56;;;;;;;1.90;0.97;;;27.30;99.90;;;;;;5064004;28;20189;-84
2021/07/10 11:29:28;;;;;;;0.80;0.77;;;27.70;99.90;;;;;;5077978;28;20194;-83
2021/07/10 11:32:19;;;;;;;0.63;0.63;;;27.90;99.90;;;;;;5064207;28;20192;-84
2021/07/10 11:34:59;;;;;;;0.40;0.40;;;28.50;99.90;;;;;;5056532;28;20205;-84
2021/07/10 11:37:30;;;;;;;0.77;0.73;;;28.70;99.90;;;;;;5075220;28;20236;-83
2021/07/10 11:40:01;;;;;;;0.40;0.40;;;28.70;99.90;;;;;;5076326;28;20253;-84
2021/07/10 11:42:28;;;;;;;0.43;0.37;;;28.90;99.90;;;;;;5055297;28;20181;-84
2021/07/10 11:45:04;;;;;;;0.33;0.33;;;28.90;99.90;;;;;;5078141;28;20197;-84
2021/07/10 11:47:32;;;;;;;0.70;0.70;;;28.80;99.90;;;;;;5047717;28;20188;-84
2021/07/10 11:50:00;;;;;;;0.93;0.70;;;28.50;99.90;;;;;;5053937;28;20209;-83
2021/07/10 11:52:26;;;;;;;2.07;1.33;;;28.20;99.90;;;;;;5052040;28;20550;-84
2021/07/10 11:54:55;;;;;;;0.70;0.70;;;28.70;99.90;;;;;;5051639;28;20205;-84
2021/07/10 11:57:23;;;;;;;0.60;0.60;;;29.10;99.90;;;;;;5052727;28;20206;-84
2021/07/10 11:59:49;;;;;;;0.77;0.70;;;29.30;99.90;;;;;;5049662;28;20185;-83
2021/07/10 12:02:19;;;;;;;0.73;0.73;;;29.40;99.90;;;;;;5050226;28;20178;-83
2021/07/10 12:05:14;;;;;;;0.75;0.55;;;28.60;99.90;;;;;;5069450;28;20229;-84
2021/07/10 12:07:46;;;;;;;0.60;0.40;;;28.90;99.90;;;;;;5067273;28;20189;-84
2021/07/10 12:10:35;;;;;;;0.85;0.80;;;29.30;99.90;;;;;;5049728;28;20181;-84
2021/07/10 12:13:09;;;;;;;0.53;0.53;;;27.70;99.90;;;;;;5041688;28;20189;-84
2021/07/10 12:15:41;;;;;;;0.70;0.70;;;28.00;99.90;;;;;;5044267;28;20205;-84
2021/07/10 12:18:09;;;;;;;0.50;0.50;;;28.40;99.90;;;;;;5047562;28;20749;-84
2021/07/10 12:20:44;;;;;;;0.60;0.60;;;27.50;99.90;;;;;;5051365;28;20181;-83
2021/07/10 12:23:31;;;;;;;0.53;0.53;;;28.00;99.90;;;;;;5042346;28;20665;-83
2021/07/10 12:25:57;;;;;;;0.70;0.70;;;28.30;99.90;;;;;;5051849;28;20178;-83
2021/07/10 12:28:32;;;;;;;0.60;0.60;;;28.30;99.90;;;;;;5038485;28;20189;-83
2021/07/10 12:31:00;;;;;;;0.40;0.40;;;28.40;99.90;;;;;;5057755;28;20190;-83
2021/07/10 12:33:40;;;;;;;0.50;0.50;;;28.60;99.90;;;;;;5056388;28;20193;-83
2021/07/10 12:36:09;;;;;;;0.60;0.60;;;28.70;99.90;;;;;;5050627;28;20209;-85
2021/07/10 12:38:47;;;;;;;0.67;0.50;;;28.70;99.90;;;;;;5071952;28;20177;-85
2021/07/10 12:41:23;;;;;;;0.83;0.60;;;28.70;99.90;;;;;;5042767;28;20533;-84
2021/07/10 12:43:50;;;;;;;0.27;0.27;;;28.60;99.90;;;;;;5067002;28;20344;-83
2021/07/10 12:46:16;;;;;;;1.38;0.40;;;28.40;99.90;;;;;;5058065;28;20236;-83
2021/07/10 12:48:44;;;;;;;0.50;0.50;;;28.40;99.90;;;;;;5040704;28;20625;-85
2021/07/10 12:51:09;;;;;;;0.40;0.40;;;28.50;99.90;;;;;;5041051;28;20190;-85
2021/07/10 12:53:38;;;;;;;0.40;0.40;;;28.50;99.90;;;;;;5048559;28;20860;-85
2021/07/10 12:56:33;;;;;;;0.40;0.40;;;28.60;99.90;;;;;;5046218;28;20268;-84